LFKFLFKB

Guest
Details From LFKF - Figari Sud Corse
To LFKB - Bastia Poretta
Flight Number -
Tags generated
Created
Modified
Stats Distance 67 nm / 124 km
Max Altitude 7,900 ft / 2,408 m
Waypoints 3
Social Downloads 0
Likes 0
Share VATSIM

Download

Looking for another format? Having issues loading an existing format? Contact us
Advertisement - Login to hide

Notes

Basic altitude profile: - Ascent Rate: 1000ft/min - Ascent Speed: 80kts - Cruise Altitude: 6000ft - Cruise Speed: 100kts - Descent Rate: 2000ft/min - Descent Speed: 120kts Options: - Use NATs: yes - Use PACOTS: yes - Use low airways: yes - Use high airways: yes

Route

LFKF SZA LFKB

ID Type Via Altitude Latitude Longitude Leg Dist Tot Dist Heading (true) Name
O LFKF APT - 0 ft / 0 m 41.50206˚ 9.09696˚ - 0 nm - Figari Sud Corse
SZA VOR - 7,900 ft / 2,408 m 41.93747˚ 9.41622˚ 29 nm 29 nm 29° / 29° -
O LFKB APT - 0 ft / 0 m 42.55251˚ 9.48371˚ 37 nm 66 nm 5° / 5° Bastia Poretta

Altitude Profile

Advertisement - Login to hide

LFKF

Details ICAO LFKF (FSC)
Name Figari Sud Corse
Region France
Timezone Europe/Paris (UTC+1.0)
Stats Elevation 87 ft / 27 m (AMSL)
Location 41.502064° 9.096960°
Runways 1
Magnetic Variation 2.378° E

METAR

LFKF 121430Z AUTO 23010KT 9999 BKN058 BKN070 OVC084 11/09 Q1013 TEMPO RA BKN010 FEW025TCU

Decode

TAF

TAF AMD LFKF 121428Z 1215/1315 22010KT 9999 BKN030 OVC060 TEMPO 1215/1224 4000 RA BKN010 FEW025TCU TEMPO 1311/1315 25015G25KT

Decode

Departure Runways

ID Width Length Bearing (true) Bearing (mag) Surface Threshold Offset Overrun Length
05 148 ft / 45 m 8,131 ft / 2,478 m 47.42° 45.04° Asphalt 0 ft / 0 m 0 ft / 0 m
23 148 ft / 45 m 8,131 ft / 2,478 m 227.44° 225.06° Asphalt 0 ft / 0 m 0 ft / 0 m

LFKB

Details ICAO LFKB (BIA)
Name Bastia Poretta
Region France
Timezone Europe/Paris (UTC+1.0)
Stats Elevation 25 ft / 8 m (AMSL)
Location 42.552508° 9.483709°
Runways 1
Magnetic Variation 2.484° E

METAR

LFKB 121430Z AUTO 25003KT 9999 FEW031 OVC100 13/09 Q1012 TEMPO RA BKN015 FEW025TCU

Decode

TAF

TAF TAF LFKB 121400Z 1215/1315 VRB05KT 9999 SCT030 BKN070 OVC110 PROB30 TEMPO 1215/1221 RA BKN015 FEW025TCU BECMG 1301/1303 23010KT TX15/1313Z TN08/1304Z

Decode

Destination Runways

ID Width Length Bearing (true) Bearing (mag) Surface Threshold Offset Overrun Length
16 148 ft / 45 m 8,273 ft / 2,522 m 162.83° 160.35° Concrete 0 ft / 0 m 131 ft / 40 m
34 148 ft / 45 m 8,273 ft / 2,522 m 342.84° 340.36° Concrete 0 ft / 0 m 0 ft / 0 m

Approach Navaids

Runway Type Ident Frequency Range Bearing (true) Bearing (mag) Slope Elevation
34 Localiser BP 111.35 MHz 27 nm / 50 km 342.81° 340.33° - 25 ft / 8 m (AMSL)
34 Glidescope BP 111.35 MHz 27 nm / 50 km 342.81° 340.33° 3.00° 25 ft / 8 m (AMSL)
34 DME BP 111.35 MHz 18 nm / 33 km - - - 69 ft / 21 m (AMSL)

Popular Alternatives